Airport ICAO


00:50 UTC

-1°C

Clear skies


An affordable passengers' Moving Map for your aircraft. Made for the iPad and the iPhone
More information here

LFPN Le Noble


Toussous FRANCE   VFR CAVOK


METAR LFPN 230030Z AUTO 05009KT CAVOK M01/M06 Q1016 0h20min

TAF LFPN 221700Z 2218/2303 04010KT CAVOK 7h50min





NOTAMS

OPEN